createdAt,value
2018-12-06T00:00:40.560Z,4.90
2018-12-06T00:03:08.625Z,4.93
2018-12-06T00:05:36.722Z,4.50
2018-12-06T00:08:15.544Z,4.03
2018-12-06T00:10:44.032Z,4.67
2018-12-06T00:13:12.506Z,4.60
2018-12-06T00:15:41.014Z,7.90
2018-12-06T00:18:09.117Z,6.43
2018-12-06T00:20:37.165Z,9.53
2018-12-06T00:23:05.252Z,5.23
2018-12-06T00:25:33.346Z,6.90
2018-12-06T00:28:01.452Z,4.50
2018-12-06T00:30:34.306Z,5.40
2018-12-06T00:33:03.086Z,6.23
2018-12-06T00:35:31.275Z,3.77
2018-12-06T00:37:59.434Z,10.20
2018-12-06T00:40:27.618Z,6.57
2018-12-06T00:42:55.706Z,5.03
2018-12-06T00:45:23.767Z,7.90
2018-12-06T00:47:52.115Z,6.13
2018-12-06T00:50:20.189Z,5.90
2018-12-06T00:52:48.266Z,4.53
2018-12-06T00:55:16.310Z,4.07
2018-12-06T00:57:44.414Z,6.93
2018-12-06T01:00:13.696Z,6.87
2018-12-06T01:02:41.760Z,4.67
2018-12-06T01:05:09.943Z,5.23
2018-12-06T01:07:38.010Z,5.20
2018-12-06T01:10:06.409Z,8.17
2018-12-06T01:12:34.470Z,5.90
2018-12-06T01:15:02.575Z,5.67
2018-12-06T01:17:30.632Z,5.70
2018-12-06T01:19:58.714Z,5.37
2018-12-06T01:22:26.788Z,7.00
2018-12-06T01:24:54.883Z,6.03
2018-12-06T01:27:22.964Z,5.47
2018-12-06T01:29:51.034Z,8.67
2018-12-06T01:32:19.108Z,8.27
2018-12-06T01:34:47.190Z,6.43
2018-12-06T01:37:15.249Z,6.53
2018-12-06T01:39:43.356Z,5.87
2018-12-06T01:42:11.409Z,9.03
2018-12-06T01:44:39.513Z,8.53
2018-12-06T01:47:07.994Z,5.03
2018-12-06T01:49:36.862Z,5.23
2018-12-06T01:52:04.930Z,7.50
2018-12-06T01:54:33.022Z,5.73
2018-12-06T01:57:01.211Z,7.87
2018-12-06T01:59:29.272Z,9.37
2018-12-06T02:01:57.362Z,7.83
2018-12-06T02:04:25.428Z,6.83
2018-12-06T02:06:53.487Z,8.60
2018-12-06T02:09:21.560Z,6.07
2018-12-06T02:11:49.671Z,6.67
2018-12-06T02:14:17.746Z,9.90
2018-12-06T02:16:45.808Z,10.10
2018-12-06T02:19:13.902Z,8.23
2018-12-06T02:21:41.972Z,6.37
2018-12-06T02:24:10.051Z,9.43
2018-12-06T02:26:38.488Z,9.33
2018-12-06T02:29:07.554Z,8.77
2018-12-06T02:31:35.641Z,10.40
2018-12-06T02:34:03.716Z,6.20
2018-12-06T02:36:31.781Z,8.13
2018-12-06T02:38:59.875Z,7.13
2018-12-06T02:41:27.949Z,7.63
2018-12-06T02:43:56.237Z,7.67
2018-12-06T02:46:24.311Z,6.07
2018-12-06T02:48:52.385Z,6.93
2018-12-06T02:51:20.470Z,8.37
2018-12-06T02:53:48.549Z,8.13
2018-12-06T02:56:16.607Z,7.50
2018-12-06T02:58:44.673Z,8.43
2018-12-06T03:01:12.745Z,7.00
2018-12-06T03:03:40.817Z,11.20
2018-12-06T03:06:08.902Z,9.63
2018-12-06T03:08:36.979Z,9.53
2018-12-06T03:11:05.056Z,10.83
2018-12-06T03:13:33.130Z,6.50
2018-12-06T03:16:01.330Z,10.40
2018-12-06T03:18:29.404Z,8.20
2018-12-06T03:20:57.484Z,11.50
2018-12-06T03:23:25.569Z,6.80
2018-12-06T03:25:54.167Z,8.50
2018-12-06T03:28:22.245Z,9.70
2018-12-06T03:30:50.380Z,7.20
2018-12-06T03:33:18.921Z,8.03
2018-12-06T03:35:47.011Z,9.93
2018-12-06T03:38:15.076Z,9.33
2018-12-06T03:40:43.151Z,7.77
2018-12-06T03:43:11.524Z,10.03
2018-12-06T03:45:39.604Z,9.23
2018-12-06T03:48:07.682Z,9.30
2018-12-06T03:50:35.731Z,7.87
2018-12-06T03:53:03.797Z,9.30
2018-12-06T03:55:31.902Z,7.73
2018-12-06T03:57:59.958Z,8.00
2018-12-06T04:00:28.052Z,7.80
2018-12-06T04:02:56.097Z,9.63
2018-12-06T04:05:24.159Z,8.23
2018-12-06T04:07:52.242Z,7.27
2018-12-06T04:10:20.429Z,8.10
2018-12-06T04:12:48.705Z,9.13
2018-12-06T04:15:16.770Z,8.67
2018-12-06T04:17:44.862Z,6.93
2018-12-06T04:20:13.248Z,10.50
2018-12-06T04:22:41.313Z,10.07
2018-12-06T04:25:09.380Z,8.23
2018-12-06T04:27:37.470Z,12.13
2018-12-06T04:30:06.142Z,9.10
2018-12-06T04:32:34.216Z,6.70
2018-12-06T04:35:02.274Z,6.57
2018-12-06T04:37:30.379Z,8.90
2018-12-06T04:39:58.487Z,7.30
2018-12-06T04:42:26.572Z,10.50
2018-12-06T04:44:54.654Z,7.90
2018-12-06T04:47:22.726Z,7.30
2018-12-06T04:49:50.810Z,7.63
2018-12-06T04:52:18.882Z,7.70
2018-12-06T04:54:46.960Z,9.43
2018-12-06T04:57:15.015Z,9.63
2018-12-06T04:59:43.106Z,7.57
2018-12-06T05:02:11.189Z,7.30
2018-12-06T05:04:39.247Z,8.03
2018-12-06T05:07:07.339Z,10.30
2018-12-06T05:09:35.416Z,8.60
2018-12-06T05:12:03.502Z,8.57
2018-12-06T05:14:31.576Z,9.50
2018-12-06T05:16:59.648Z,9.20
2018-12-06T05:19:27.717Z,10.77
2018-12-06T05:21:55.831Z,8.57
2018-12-06T05:24:24.285Z,6.77
2018-12-06T05:26:52.506Z,8.50
2018-12-06T05:29:20.575Z,6.53
2018-12-06T05:31:48.643Z,8.87
2018-12-06T05:34:16.726Z,7.20
2018-12-06T05:36:44.796Z,7.07
2018-12-06T05:39:12.878Z,7.67
2018-12-06T05:41:40.939Z,8.97
2018-12-06T05:44:08.992Z,8.57
2018-12-06T05:46:37.091Z,10.27
2018-12-06T05:49:05.182Z,8.13
2018-12-06T05:51:33.256Z,7.83
2018-12-06T05:54:01.586Z,8.30
2018-12-06T05:56:29.678Z,9.80
2018-12-06T05:58:57.760Z,11.23
2018-12-06T06:01:25.940Z,5.80
2018-12-06T06:03:54.021Z,6.97
2018-12-06T06:06:22.086Z,10.43
2018-12-06T06:08:50.208Z,7.30
2018-12-06T06:11:18.353Z,9.53
2018-12-06T06:13:46.431Z,6.77
2018-12-06T06:16:14.502Z,8.93
2018-12-06T06:18:42.558Z,6.80
2018-12-06T06:21:10.665Z,10.70
2018-12-06T06:23:38.755Z,6.77
2018-12-06T06:26:06.821Z,9.23
2018-12-06T06:28:34.875Z,8.67
2018-12-06T06:31:02.947Z,7.80
2018-12-06T06:33:31.008Z,7.87
2018-12-06T06:35:59.109Z,7.57
2018-12-06T06:38:27.426Z,7.13
2018-12-06T06:40:55.492Z,8.17
2018-12-06T06:43:23.556Z,8.07
2018-12-06T06:45:51.629Z,11.73
2018-12-06T06:48:19.700Z,8.33
2018-12-06T06:50:47.755Z,7.03
2018-12-06T06:53:15.838Z,5.73
2018-12-06T06:55:43.956Z,8.63
2018-12-06T06:58:12.001Z,8.70
2018-12-06T07:00:40.089Z,7.77
2018-12-06T07:03:08.495Z,9.27
2018-12-06T07:05:36.545Z,7.10
2018-12-06T07:08:04.611Z,8.90
2018-12-06T07:10:32.670Z,7.23
2018-12-06T07:13:00.766Z,8.13
2018-12-06T07:15:28.940Z,7.10
2018-12-06T07:17:57.018Z,9.13
2018-12-06T07:20:25.190Z,7.33
2018-12-06T07:22:53.286Z,7.73
2018-12-06T07:25:21.360Z,10.03
2018-12-06T07:27:49.451Z,9.53
2018-12-06T07:30:17.504Z,9.33
2018-12-06T07:32:45.584Z,7.47
2018-12-06T07:35:13.661Z,5.73
2018-12-06T07:37:41.724Z,6.90
2018-12-06T07:40:09.811Z,7.77
2018-12-06T07:42:37.876Z,7.23
2018-12-06T07:45:06.167Z,10.67
2018-12-06T07:47:34.249Z,8.17
2018-12-06T07:50:02.405Z,9.30
2018-12-06T07:52:30.498Z,9.47
2018-12-06T07:54:58.560Z,8.70
2018-12-06T07:57:26.629Z,13.17
2018-12-06T07:59:54.697Z,6.47
2018-12-06T08:02:22.800Z,7.27
2018-12-06T08:04:50.872Z,8.13
2018-12-06T08:07:18.923Z,9.53
2018-12-06T08:09:47.011Z,11.30
2018-12-06T08:12:15.069Z,7.70
2018-12-06T08:14:43.191Z,6.70
2018-12-06T08:17:11.272Z,7.07
2018-12-06T08:19:39.359Z,6.17
2018-12-06T08:22:07.445Z,8.20
2018-12-06T08:24:35.523Z,6.67
2018-12-06T08:27:03.590Z,6.63
2018-12-06T08:29:31.673Z,7.07
2018-12-06T08:31:59.749Z,9.90
2018-12-06T08:34:27.829Z,7.80
2018-12-06T08:36:55.893Z,5.37
2018-12-06T08:39:23.969Z,12.43
2018-12-06T08:41:52.058Z,6.30
2018-12-06T08:44:21.526Z,5.40
2018-12-06T08:46:49.918Z,6.07
2018-12-06T08:49:18.338Z,5.73
2018-12-06T08:51:46.393Z,6.77
2018-12-06T08:54:14.472Z,5.80
2018-12-06T08:56:42.564Z,6.17
2018-12-06T08:59:10.617Z,8.67
2018-12-06T09:01:38.690Z,8.87
2018-12-06T09:04:06.778Z,5.80
2018-12-06T09:06:34.855Z,5.60
2018-12-06T09:09:03.632Z,6.90
2018-12-06T09:11:31.711Z,8.30
2018-12-06T09:13:59.772Z,8.57
2018-12-06T09:16:27.850Z,5.63
2018-12-06T09:18:55.917Z,8.03
2018-12-06T09:21:23.987Z,7.30
2018-12-06T09:23:52.072Z,6.33
2018-12-06T09:26:20.155Z,6.37
2018-12-06T09:28:48.223Z,7.50
2018-12-06T09:31:16.310Z,9.50
2018-12-06T09:33:56.402Z,10.23
2018-12-06T09:36:24.468Z,4.93
2018-12-06T09:38:52.652Z,5.53
2018-12-06T09:41:20.715Z,6.63
2018-12-06T09:43:48.807Z,6.70
2018-12-06T09:46:16.890Z,6.43
2018-12-06T09:48:44.962Z,5.30
2018-12-06T09:51:13.016Z,9.33
2018-12-06T09:53:41.088Z,8.10
2018-12-06T09:56:09.160Z,6.60
2018-12-06T09:58:37.349Z,5.37
2018-12-06T10:01:05.411Z,4.73
2018-12-06T10:03:33.491Z,6.30
2018-12-06T10:06:01.564Z,7.10
2018-12-06T10:08:29.639Z,6.73
2018-12-06T10:10:57.736Z,5.07
2018-12-06T10:13:25.823Z,4.33
2018-12-06T10:15:53.880Z,4.67
2018-12-06T10:18:21.981Z,4.57
2018-12-06T10:20:50.078Z,6.20
2018-12-06T10:23:18.174Z,5.23
2018-12-06T10:25:46.243Z,3.93
2018-12-06T10:28:14.347Z,3.90
2018-12-06T10:30:42.428Z,6.43
2018-12-06T10:33:10.855Z,4.57
2018-12-06T10:35:38.938Z,5.63
2018-12-06T10:38:07.009Z,5.50
2018-12-06T10:40:35.096Z,6.57
2018-12-06T10:43:03.191Z,7.00
2018-12-06T10:45:32.154Z,6.17
2018-12-06T10:48:00.275Z,7.40
2018-12-06T10:50:28.348Z,7.63
2018-12-06T10:52:56.444Z,7.93
2018-12-06T10:55:24.502Z,6.93
2018-12-06T10:57:52.590Z,7.47
2018-12-06T11:00:26.125Z,7.53
2018-12-06T11:02:56.217Z,9.30
2018-12-06T11:05:29.874Z,7.30
2018-12-06T11:08:03.774Z,8.80
2018-12-06T11:10:37.672Z,8.60
2018-12-06T11:13:05.769Z,8.20
2018-12-06T11:15:39.548Z,7.80
2018-12-06T11:18:07.644Z,7.07
2018-12-06T11:20:35.704Z,11.17
2018-12-06T11:23:03.777Z,8.07
2018-12-06T11:25:31.874Z,12.13
2018-12-06T11:27:59.944Z,25.87
2018-12-06T11:30:28.062Z,10.17
2018-12-06T11:32:56.192Z,10.00
2018-12-06T11:35:24.246Z,12.17
2018-12-06T11:37:52.357Z,11.90
2018-12-06T11:40:20.414Z,11.53
2018-12-06T11:42:48.475Z,11.90
2018-12-06T11:45:16.563Z,10.83
2018-12-06T11:47:44.659Z,11.37
2018-12-06T11:50:12.737Z,13.10
2018-12-06T11:52:40.806Z,11.67
2018-12-06T11:55:08.886Z,11.80
2018-12-06T11:57:36.962Z,14.07
2018-12-06T12:00:06.041Z,12.37
2018-12-06T12:02:34.160Z,11.80
2018-12-06T12:05:02.356Z,13.20
2018-12-06T12:07:30.442Z,12.43
2018-12-06T12:09:58.525Z,10.73
2018-12-06T12:12:26.642Z,15.43
2018-12-06T12:14:54.747Z,11.00
2018-12-06T12:17:22.840Z,13.03
2018-12-06T12:19:50.929Z,14.87
2018-12-06T12:22:19.016Z,12.47
2018-12-06T12:24:47.092Z,12.67
2018-12-06T12:27:15.184Z,15.47
2018-12-06T12:29:43.291Z,13.63
2018-12-06T12:32:11.410Z,12.97
2018-12-06T12:34:39.484Z,12.83
2018-12-06T12:37:07.573Z,14.87
2018-12-06T12:39:35.648Z,14.67
2018-12-06T12:42:03.710Z,15.80
2018-12-06T12:44:31.794Z,11.53
2018-12-06T12:46:59.861Z,10.73
2018-12-06T12:49:27.949Z,13.47
2018-12-06T12:51:56.026Z,11.90
2018-12-06T12:54:24.114Z,13.20
2018-12-06T12:56:52.202Z,13.67
2018-12-06T12:59:20.571Z,14.57
2018-12-06T13:01:48.620Z,14.23
2018-12-06T13:04:16.694Z,12.63
2018-12-06T13:06:44.803Z,9.77
2018-12-06T13:09:12.876Z,10.53
2018-12-06T13:11:40.954Z,10.03
2018-12-06T13:14:09.283Z,11.77
2018-12-06T13:16:37.363Z,14.40
2018-12-06T13:19:05.430Z,14.07
2018-12-06T13:21:33.534Z,15.77
2018-12-06T13:24:01.620Z,15.90
2018-12-06T13:26:29.690Z,12.53
2018-12-06T13:28:57.776Z,16.37
2018-12-06T13:31:25.863Z,15.03
2018-12-06T13:33:54.078Z,14.17
2018-12-06T13:36:22.181Z,18.27
2018-12-06T13:38:50.281Z,12.60
2018-12-06T13:41:19.586Z,16.03
2018-12-06T13:43:47.784Z,16.83
2018-12-06T13:46:15.839Z,16.17
2018-12-06T13:48:43.923Z,17.17
2018-12-06T13:51:11.996Z,13.07
2018-12-06T13:53:40.080Z,14.33
2018-12-06T13:56:08.164Z,18.30
2018-12-06T13:58:36.253Z,11.10
2018-12-06T14:01:04.774Z,10.13
2018-12-06T14:03:33.166Z,12.27
2018-12-06T14:06:01.246Z,12.60
2018-12-06T14:08:29.342Z,12.73
2018-12-06T14:10:57.426Z,15.83
2018-12-06T14:13:25.490Z,14.80
2018-12-06T14:15:53.578Z,16.23
2018-12-06T14:18:21.649Z,14.90
2018-12-06T14:20:49.723Z,12.67
2018-12-06T14:23:17.814Z,15.10
2018-12-06T14:25:45.896Z,16.10
2018-12-06T14:28:13.965Z,13.60
2018-12-06T14:30:42.046Z,15.13
2018-12-06T14:33:10.143Z,11.77
2018-12-06T14:35:38.226Z,16.50
2018-12-06T14:38:06.308Z,15.63
2018-12-06T14:40:34.378Z,16.20
2018-12-06T14:43:02.463Z,15.10
2018-12-06T14:45:30.856Z,16.03
2018-12-06T14:47:58.969Z,13.73
2018-12-06T14:50:27.029Z,13.97
2018-12-06T14:52:55.108Z,14.17
2018-12-06T14:55:23.185Z,14.87
2018-12-06T14:57:51.250Z,14.20
2018-12-06T15:00:19.337Z,16.70
2018-12-06T15:02:47.401Z,20.23
2018-12-06T15:05:15.470Z,13.87
2018-12-06T15:07:43.566Z,16.73
2018-12-06T15:10:11.634Z,13.70
2018-12-06T15:12:39.704Z,19.70
2018-12-06T15:15:07.974Z,22.33
2018-12-06T15:17:36.064Z,15.40
2018-12-06T15:20:04.751Z,14.37
2018-12-06T15:22:32.850Z,17.23
2018-12-06T15:25:01.137Z,21.80
2018-12-06T15:27:29.411Z,22.23
2018-12-06T15:29:57.706Z,17.93
2018-12-06T15:32:25.834Z,15.87
2018-12-06T15:34:53.907Z,25.20
2018-12-06T15:37:21.994Z,19.80
2018-12-06T15:39:50.075Z,24.40
2018-12-06T15:42:18.220Z,24.73
2018-12-06T15:44:46.314Z,25.03
2018-12-06T15:47:14.391Z,26.57
2018-12-06T15:49:42.465Z,28.90
2018-12-06T15:52:10.526Z,27.83
2018-12-06T15:54:38.618Z,24.00
2018-12-06T15:57:06.683Z,37.70
2018-12-06T15:59:34.760Z,32.07
2018-12-06T16:02:02.864Z,41.67
2018-12-06T16:04:30.964Z,21.73
2018-12-06T16:06:59.045Z,37.20
2018-12-06T16:09:27.128Z,26.90
2018-12-06T16:11:55.216Z,39.07
2018-12-06T16:14:23.296Z,22.23
2018-12-06T16:16:51.358Z,31.57
2018-12-06T16:19:19.479Z,42.43
2018-12-06T16:21:47.543Z,17.27
2018-12-06T16:24:15.622Z,22.33
2018-12-06T16:26:43.714Z,25.40
2018-12-06T16:29:11.814Z,34.40
2018-12-06T16:31:40.010Z,39.00
2018-12-06T16:34:08.083Z,27.87
2018-12-06T16:36:36.148Z,27.90
2018-12-06T16:39:06.371Z,26.07
2018-12-06T16:41:35.196Z,34.43
2018-12-06T16:44:03.902Z,38.13
2018-12-06T16:46:31.975Z,34.33
2018-12-06T16:49:00.052Z,22.07
2018-12-06T16:51:28.124Z,40.27
2018-12-06T16:53:56.215Z,23.43
2018-12-06T16:56:24.283Z,20.77
2018-12-06T16:58:52.394Z,23.57
2018-12-06T17:01:20.478Z,21.83
2018-12-06T17:03:48.552Z,33.77
2018-12-06T17:06:16.658Z,22.73
2018-12-06T17:08:44.933Z,18.20
2018-12-06T17:11:12.992Z,18.63
2018-12-06T17:13:41.057Z,14.80
2018-12-06T17:16:09.148Z,16.67
2018-12-06T17:18:37.202Z,17.93
2018-12-06T17:21:05.580Z,20.10
2018-12-06T17:23:34.613Z,18.00
2018-12-06T17:26:03.475Z,20.10
2018-12-06T17:28:31.566Z,21.30
2018-12-06T17:30:59.660Z,17.17
2018-12-06T17:33:27.756Z,15.30
2018-12-06T17:35:55.826Z,16.73
2018-12-06T17:38:23.905Z,18.63
2018-12-06T17:40:51.986Z,13.47
2018-12-06T17:43:20.060Z,14.20
2018-12-06T17:45:48.236Z,13.07
2018-12-06T17:48:16.319Z,11.93
2018-12-06T17:50:44.408Z,15.93
2018-12-06T17:53:12.473Z,13.90
2018-12-06T17:55:51.311Z,19.27
2018-12-06T17:58:19.392Z,14.87
2018-12-06T18:00:47.464Z,17.80
2018-12-06T18:03:15.537Z,18.40
2018-12-06T18:05:43.754Z,14.90
2018-12-06T18:08:11.934Z,17.63
2018-12-06T18:10:40.223Z,14.63
2018-12-06T18:13:08.292Z,11.10
2018-12-06T18:15:36.896Z,12.80
2018-12-06T18:18:04.967Z,15.67
2018-12-06T18:20:33.057Z,15.50
2018-12-06T18:23:01.149Z,15.07
2018-12-06T18:25:29.205Z,11.23
2018-12-06T18:27:57.283Z,15.60
2018-12-06T18:30:25.405Z,18.77
2018-12-06T18:32:53.485Z,15.83
2018-12-06T18:35:21.570Z,22.87
2018-12-06T18:37:49.655Z,18.87
2018-12-06T18:40:17.714Z,13.37
2018-12-06T18:42:45.814Z,15.73
2018-12-06T18:45:13.882Z,9.10
2018-12-06T18:47:41.954Z,12.13
2018-12-06T18:50:10.031Z,12.10
2018-12-06T18:52:38.120Z,11.00
2018-12-06T18:55:06.376Z,10.83
2018-12-06T18:57:34.430Z,12.27
2018-12-06T19:00:02.496Z,10.47
2018-12-06T19:02:30.553Z,11.17
2018-12-06T19:04:58.618Z,8.73
2018-12-06T19:07:26.697Z,12.70
2018-12-06T19:09:54.779Z,10.87
2018-12-06T19:12:22.982Z,11.47
2018-12-06T19:14:56.718Z,11.00
2018-12-06T19:17:24.809Z,11.27
2018-12-06T19:19:52.878Z,12.20
2018-12-06T19:22:20.947Z,13.93
2018-12-06T19:24:54.624Z,15.13
2018-12-06T19:27:22.702Z,13.57
2018-12-06T19:29:56.408Z,11.10
2018-12-06T19:32:30.316Z,12.80
2018-12-06T19:34:58.379Z,13.87
2018-12-06T19:37:26.480Z,14.30
2018-12-06T19:39:54.552Z,15.03
2018-12-06T19:42:22.642Z,16.83
2018-12-06T19:44:50.785Z,14.93
2018-12-06T19:47:18.874Z,13.27
2018-12-06T19:49:47.006Z,16.60
2018-12-06T19:52:15.083Z,16.77
2018-12-06T19:54:43.160Z,15.50
2018-12-06T19:57:11.230Z,15.77
2018-12-06T19:59:39.324Z,16.27
2018-12-06T20:02:07.547Z,17.33
2018-12-06T20:04:35.615Z,15.03
2018-12-06T20:07:03.773Z,17.73
2018-12-06T20:09:31.876Z,18.57
2018-12-06T20:11:59.961Z,15.37
2018-12-06T20:14:28.060Z,15.87
2018-12-06T20:16:56.147Z,15.43
2018-12-06T20:19:24.225Z,13.63
2018-12-06T20:21:52.322Z,15.13
2018-12-06T20:24:20.410Z,16.10
2018-12-06T20:26:48.510Z,16.13
2018-12-06T20:29:16.597Z,18.17
2018-12-06T20:31:44.684Z,16.90
2018-12-06T20:34:12.762Z,14.63
2018-12-06T20:36:40.854Z,12.87
2018-12-06T20:39:09.084Z,14.00
2018-12-06T20:41:37.157Z,16.47
2018-12-06T20:44:05.266Z,13.27
2018-12-06T20:46:33.374Z,14.40
2018-12-06T20:49:01.472Z,12.97
2018-12-06T20:51:29.544Z,14.73
2018-12-06T20:53:57.650Z,11.33
2018-12-06T20:56:25.752Z,12.20
2018-12-06T20:58:53.882Z,11.70
2018-12-06T21:01:21.983Z,12.73
2018-12-06T21:03:50.069Z,9.53
2018-12-06T21:06:18.151Z,10.77
2018-12-06T21:08:46.237Z,9.57
2018-12-06T21:11:14.371Z,8.93
2018-12-06T21:13:42.422Z,10.77
2018-12-06T21:16:10.519Z,12.40
2018-12-06T21:18:38.595Z,10.13
2018-12-06T21:21:06.693Z,9.13
2018-12-06T21:23:34.754Z,11.77
2018-12-06T21:26:02.831Z,10.13
2018-12-06T21:28:30.934Z,10.43
2018-12-06T21:30:59.003Z,8.33
2018-12-06T21:33:27.101Z,9.23
2018-12-06T21:35:55.169Z,7.70
2018-12-06T21:38:24.154Z,6.83
2018-12-06T21:40:52.256Z,9.07
2018-12-06T21:43:20.353Z,7.93
2018-12-06T21:45:48.411Z,7.57
2018-12-06T21:48:16.481Z,7.67
2018-12-06T21:50:44.565Z,7.97
2018-12-06T21:53:12.766Z,7.50
2018-12-06T21:55:40.821Z,7.37
2018-12-06T21:58:08.893Z,7.80
2018-12-06T22:00:36.946Z,7.40
2018-12-06T22:03:05.040Z,8.63
2018-12-06T22:05:33.100Z,7.53
2018-12-06T22:08:01.184Z,7.93
2018-12-06T22:10:29.265Z,6.80
2018-12-06T22:12:57.356Z,6.27
2018-12-06T22:15:25.419Z,8.33
2018-12-06T22:17:53.574Z,5.37
2018-12-06T22:20:21.658Z,6.10
2018-12-06T22:22:49.990Z,7.10
2018-12-06T22:25:18.065Z,7.17
2018-12-06T22:27:46.131Z,4.30
2018-12-06T22:30:14.227Z,6.33
2018-12-06T22:32:42.323Z,4.10
2018-12-06T22:35:10.403Z,5.00
2018-12-06T22:37:38.497Z,4.43
2018-12-06T22:40:07.100Z,4.37
2018-12-06T22:42:35.301Z,5.03
2018-12-06T22:48:00.036Z,5.27
2018-12-06T22:50:28.103Z,5.93
2018-12-06T22:52:56.174Z,4.40
2018-12-06T22:55:24.272Z,4.97
2018-12-06T22:57:52.343Z,3.60
2018-12-06T23:00:22.643Z,4.60
2018-12-06T23:02:50.701Z,4.90
2018-12-06T23:05:18.783Z,4.43
2018-12-06T23:07:46.914Z,4.03
2018-12-06T23:10:15.014Z,4.10
2018-12-06T23:12:43.099Z,4.23
2018-12-06T23:15:11.196Z,5.13
2018-12-06T23:17:39.264Z,3.17
2018-12-06T23:20:07.642Z,4.23
2018-12-06T23:22:35.709Z,3.73
2018-12-06T23:25:03.889Z,4.63
2018-12-06T23:27:31.966Z,4.33
2018-12-06T23:30:00.061Z,4.00
2018-12-06T23:32:28.150Z,4.53
2018-12-06T23:34:56.199Z,4.40
2018-12-06T23:37:24.291Z,3.10
2018-12-06T23:39:52.374Z,3.00
2018-12-06T23:42:20.470Z,3.87
2018-12-06T23:44:48.555Z,3.83
2018-12-06T23:47:16.625Z,3.57
2018-12-06T23:49:44.794Z,3.40
2018-12-06T23:52:12.865Z,3.77
2018-12-06T23:54:40.961Z,3.30
2018-12-06T23:57:09.050Z,3.20
2018-12-06T23:59:37.109Z,3.83
